createdAt,value
2018-02-10T00:00:54.418Z,21.15
2018-02-10T00:01:54.409Z,21.14
2018-02-10T00:02:54.397Z,21.15
2018-02-10T00:04:15.408Z,21.19
2018-02-10T00:04:54.381Z,21.17
2018-02-10T00:05:54.373Z,21.19
2018-02-10T00:06:54.367Z,21.19
2018-02-10T00:07:54.359Z,21.19
2018-02-10T00:08:54.351Z,21.15
2018-02-10T00:10:15.354Z,21.19
2018-02-10T00:10:54.337Z,21.20
2018-02-10T00:11:54.325Z,21.22
2018-02-10T00:12:54.318Z,21.22
2018-02-10T00:13:54.313Z,21.19
2018-02-10T00:14:54.305Z,21.22
2018-02-10T00:16:15.356Z,21.22
2018-02-10T00:16:54.286Z,21.20
2018-02-10T00:17:54.282Z,21.28
2018-02-10T00:18:54.281Z,21.22
2018-02-10T00:19:54.265Z,21.20
2018-02-10T00:20:54.264Z,21.20
2018-02-10T00:22:15.258Z,21.11
2018-02-10T00:22:54.236Z,21.17
2018-02-10T00:23:54.228Z,21.22
2018-02-10T00:24:54.219Z,21.19
2018-02-10T00:25:54.247Z,21.19
2018-02-10T00:26:54.212Z,21.22
2018-02-10T00:28:15.207Z,21.15
2018-02-10T00:28:54.190Z,21.17
2018-02-10T00:29:54.190Z,21.20
2018-02-10T00:30:54.174Z,21.20
2018-02-10T00:31:54.167Z,21.19
2018-02-10T00:32:54.164Z,21.22
2018-02-10T00:34:15.162Z,21.20
2018-02-10T00:34:54.143Z,21.20
2018-02-10T00:35:54.143Z,21.25
2018-02-10T00:36:54.127Z,21.19
2018-02-10T00:37:54.119Z,21.22
2018-02-10T00:38:54.108Z,21.17
2018-02-10T00:40:15.108Z,21.20
2018-02-10T00:40:54.111Z,21.10
2018-02-10T00:41:54.090Z,21.20
2018-02-10T00:42:54.089Z,21.15
2018-02-10T00:43:54.073Z,21.19
2018-02-10T00:44:54.068Z,21.17
2018-02-10T00:46:15.062Z,21.20
2018-02-10T00:46:54.047Z,21.17
2018-02-10T00:47:54.039Z,21.19
2018-02-10T00:48:54.026Z,21.19
2018-02-10T00:49:54.021Z,21.17
2018-02-10T00:50:54.023Z,21.19
2018-02-10T00:52:15.007Z,21.19
2018-02-10T00:52:53.997Z,21.20
2018-02-10T00:53:53.991Z,21.14
2018-02-10T00:54:54.002Z,21.17
2018-02-10T00:55:53.968Z,21.17
2018-02-10T00:56:53.998Z,21.14
2018-02-10T00:58:14.966Z,21.20
2018-02-10T00:58:53.945Z,21.19
2018-02-10T00:59:53.937Z,21.20
2018-02-10T01:00:53.931Z,21.15
2018-02-10T01:01:53.922Z,21.20
2018-02-10T01:02:53.921Z,21.17
2018-02-10T01:04:14.915Z,21.15
2018-02-10T01:04:53.896Z,21.13
2018-02-10T01:05:53.904Z,21.14
2018-02-10T01:06:53.884Z,21.17
2018-02-10T01:07:53.874Z,21.13
2018-02-10T01:08:53.877Z,21.15
2018-02-10T01:10:14.866Z,21.19
2018-02-10T01:10:53.848Z,21.17
2018-02-10T01:11:53.839Z,21.20
2018-02-10T01:12:53.831Z,21.17
2018-02-10T01:13:53.828Z,21.19
2018-02-10T01:14:53.821Z,21.15
2018-02-10T01:16:14.815Z,21.20
2018-02-10T01:16:53.809Z,21.20
2018-02-10T01:17:53.796Z,21.19
2018-02-10T01:18:53.791Z,21.17
2018-02-10T01:19:53.779Z,21.26
2018-02-10T01:20:53.775Z,21.17
2018-02-10T01:22:14.770Z,21.20
2018-02-10T01:22:53.761Z,21.20
2018-02-10T01:23:53.741Z,21.20
2018-02-10T01:24:53.738Z,21.20
2018-02-10T01:25:53.725Z,21.15
2018-02-10T01:26:53.719Z,21.14
2018-02-10T01:28:14.720Z,21.15
2018-02-10T01:28:53.704Z,21.15
2018-02-10T01:29:53.697Z,21.17
2018-02-10T01:30:53.699Z,21.17
2018-02-10T01:31:53.681Z,21.15
2018-02-10T01:32:53.675Z,21.20
2018-02-10T01:34:14.668Z,21.19
2018-02-10T01:34:53.654Z,21.14
2018-02-10T01:35:53.646Z,21.15
2018-02-10T01:36:53.637Z,21.14
2018-02-10T01:37:53.627Z,21.15
2018-02-10T01:38:53.618Z,21.14
2018-02-10T01:40:14.619Z,21.14
2018-02-10T01:40:53.611Z,21.15
2018-02-10T01:41:53.600Z,21.15
2018-02-10T01:42:53.599Z,21.10
2018-02-10T01:43:53.581Z,21.17
2018-02-10T01:44:53.576Z,21.14
2018-02-10T01:46:14.577Z,21.14
2018-02-10T01:46:53.555Z,21.13
2018-02-10T01:47:53.548Z,21.04
2018-02-10T01:48:53.542Z,21.11
2018-02-10T01:49:53.535Z,21.04
2018-02-10T01:50:53.524Z,21.08
2018-02-10T01:52:14.522Z,21.07
2018-02-10T01:52:53.508Z,21.10
2018-02-10T01:53:53.510Z,21.08
2018-02-10T01:54:53.503Z,21.08
2018-02-10T01:55:53.491Z,21.01
2018-02-10T01:56:53.480Z,21.07
2018-02-10T01:58:14.483Z,21.08
2018-02-10T01:58:53.455Z,21.11
2018-02-10T01:59:53.448Z,21.11
2018-02-10T02:00:53.442Z,21.04
2018-02-10T02:01:53.433Z,21.07
2018-02-10T02:02:53.425Z,21.15
2018-02-10T02:04:14.424Z,21.15
2018-02-10T02:04:53.416Z,21.11
2018-02-10T02:05:53.405Z,21.10
2018-02-10T02:06:53.395Z,21.13
2018-02-10T02:07:53.382Z,21.19
2018-02-10T02:08:53.387Z,21.15
2018-02-10T02:10:14.378Z,21.14
2018-02-10T02:10:53.361Z,21.17
2018-02-10T02:11:53.354Z,21.17
2018-02-10T02:12:53.341Z,21.14
2018-02-10T02:13:53.335Z,21.19
2018-02-10T02:14:53.328Z,21.17
2018-02-10T02:16:14.325Z,21.20
2018-02-10T02:16:53.315Z,21.11
2018-02-10T02:17:53.307Z,21.11
2018-02-10T02:18:53.301Z,21.14
2018-02-10T02:19:53.287Z,21.17
2018-02-10T02:20:53.278Z,21.19
2018-02-10T02:22:14.280Z,21.14
2018-02-10T02:22:53.260Z,21.17
2018-02-10T02:23:53.255Z,21.15
2018-02-10T02:24:53.245Z,21.10
2018-02-10T02:25:53.240Z,21.11
2018-02-10T02:26:53.228Z,21.11
2018-02-10T02:28:14.229Z,21.15
2018-02-10T02:28:53.213Z,21.15
2018-02-10T02:29:53.209Z,21.10
2018-02-10T02:30:53.217Z,21.15
2018-02-10T02:31:53.193Z,21.13
2018-02-10T02:32:53.183Z,21.14
2018-02-10T02:34:14.184Z,21.11
2018-02-10T02:34:53.164Z,21.13
2018-02-10T02:35:53.156Z,21.10
2018-02-10T02:36:53.150Z,21.14
2018-02-10T02:37:53.145Z,21.13
2018-02-10T02:38:53.134Z,21.15
2018-02-10T02:40:14.143Z,21.15
2018-02-10T02:40:53.117Z,21.08
2018-02-10T02:41:53.115Z,21.10
2018-02-10T02:42:53.107Z,21.13
2018-02-10T02:43:53.119Z,21.14
2018-02-10T02:44:53.091Z,21.14
2018-02-10T02:46:14.091Z,21.14
2018-02-10T02:46:53.069Z,21.07
2018-02-10T02:47:53.057Z,21.07
2018-02-10T02:48:53.051Z,21.15
2018-02-10T02:49:53.057Z,21.15
2018-02-10T02:50:53.037Z,21.07
2018-02-10T02:52:14.036Z,21.08
2018-02-10T02:52:53.023Z,21.10
2018-02-10T02:53:53.015Z,21.08
2018-02-10T02:54:53.011Z,21.08
2018-02-10T02:55:52.992Z,21.14
2018-02-10T02:56:52.995Z,21.08
2018-02-10T02:58:13.991Z,21.10
2018-02-10T02:58:52.977Z,21.08
2018-02-10T02:59:52.963Z,21.10
2018-02-10T03:00:52.954Z,21.03
2018-02-10T03:01:52.962Z,21.10
2018-02-10T03:02:52.936Z,21.04
2018-02-10T03:04:13.935Z,21.14
2018-02-10T03:04:52.933Z,21.01
2018-02-10T03:05:52.932Z,21.13
2018-02-10T03:06:52.915Z,21.05
2018-02-10T03:07:52.903Z,21.10
2018-02-10T03:08:52.886Z,21.10
2018-02-10T03:10:13.889Z,21.07
2018-02-10T03:10:52.870Z,21.04
2018-02-10T03:11:52.867Z,21.08
2018-02-10T03:12:52.853Z,21.08
2018-02-10T03:13:52.848Z,21.00
2018-02-10T03:14:52.840Z,21.07
2018-02-10T03:16:13.841Z,21.11
2018-02-10T03:16:52.822Z,21.00
2018-02-10T03:17:52.815Z,21.08
2018-02-10T03:18:52.819Z,21.03
2018-02-10T03:19:52.798Z,21.11
2018-02-10T03:20:52.796Z,21.08
2018-02-10T03:22:13.795Z,21.05
2018-02-10T03:22:52.774Z,21.10
2018-02-10T03:23:52.764Z,21.14
2018-02-10T03:24:52.759Z,21.10
2018-02-10T03:25:52.749Z,21.04
2018-02-10T03:26:52.740Z,21.13
2018-02-10T03:28:13.746Z,21.10
2018-02-10T03:28:52.723Z,21.15
2018-02-10T03:29:52.721Z,21.13
2018-02-10T03:30:52.708Z,21.11
2018-02-10T03:31:52.713Z,21.14
2018-02-10T03:32:52.689Z,21.19
2018-02-10T03:34:13.689Z,21.13
2018-02-10T03:34:52.671Z,21.15
2018-02-10T03:35:52.665Z,21.13
2018-02-10T03:36:52.707Z,21.14
2018-02-10T03:37:52.655Z,21.17
2018-02-10T03:38:52.647Z,21.14
2018-02-10T03:40:13.646Z,21.13
2018-02-10T03:40:52.649Z,21.14
2018-02-10T03:41:52.620Z,21.14
2018-02-10T03:42:52.613Z,21.08
2018-02-10T03:43:52.606Z,21.15
2018-02-10T03:44:52.590Z,21.14
2018-02-10T03:46:13.595Z,21.13
2018-02-10T03:46:52.576Z,21.11
2018-02-10T03:47:52.580Z,21.14
2018-02-10T03:48:52.564Z,21.15
2018-02-10T03:49:52.552Z,21.15
2018-02-10T03:50:52.549Z,21.19
2018-02-10T03:52:13.537Z,21.14
2018-02-10T03:52:52.540Z,21.19
2018-02-10T03:53:52.524Z,21.20
2018-02-10T03:54:52.518Z,21.25
2018-02-10T03:55:52.514Z,21.13
2018-02-10T03:56:52.492Z,21.23
2018-02-10T03:58:13.523Z,21.25
2018-02-10T03:58:52.479Z,21.17
2018-02-10T03:59:52.466Z,21.23
2018-02-10T04:00:52.461Z,21.29
2018-02-10T04:01:52.495Z,21.28
2018-02-10T04:02:52.449Z,21.26
2018-02-10T04:04:13.446Z,21.29
2018-02-10T04:04:52.434Z,21.40
2018-02-10T04:05:52.425Z,21.33
2018-02-10T04:06:52.414Z,21.43
2018-02-10T04:07:52.409Z,21.38
2018-02-10T04:08:52.397Z,21.54
2018-02-10T04:10:13.398Z,21.51
2018-02-10T04:10:52.380Z,21.51
2018-02-10T04:11:52.371Z,21.56
2018-02-10T04:12:52.376Z,21.50
2018-02-10T04:13:52.360Z,21.62
2018-02-10T04:14:52.348Z,21.62
2018-02-10T04:16:13.344Z,21.68
2018-02-10T04:16:52.335Z,21.65
2018-02-10T04:17:52.327Z,21.70
2018-02-10T04:18:52.325Z,21.83
2018-02-10T04:19:52.310Z,21.75
2018-02-10T04:20:52.298Z,21.77
2018-02-10T04:22:13.304Z,21.77
2018-02-10T04:22:52.282Z,21.70
2018-02-10T04:23:52.278Z,21.77
2018-02-10T04:24:52.265Z,21.72
2018-02-10T04:25:52.280Z,21.78
2018-02-10T04:26:52.251Z,21.77
2018-02-10T04:28:13.262Z,21.72
2018-02-10T04:28:52.239Z,21.77
2018-02-10T04:29:52.233Z,21.75
2018-02-10T04:30:52.232Z,21.75
2018-02-10T04:31:52.217Z,21.74
2018-02-10T04:32:52.234Z,21.77
2018-02-10T04:34:13.210Z,21.72
2018-02-10T04:34:52.192Z,21.77
2018-02-10T04:35:52.177Z,21.78
2018-02-10T04:36:52.171Z,21.72
2018-02-10T04:37:52.163Z,21.69
2018-02-10T04:38:52.155Z,21.75
2018-02-10T04:40:13.159Z,21.70
2018-02-10T04:40:52.150Z,21.80
2018-02-10T04:41:52.136Z,21.80
2018-02-10T04:42:52.130Z,21.77
2018-02-10T04:43:52.121Z,21.75
2018-02-10T04:44:52.116Z,21.74
2018-02-10T04:46:13.112Z,21.70
2018-02-10T04:46:52.095Z,21.74
2018-02-10T04:47:52.092Z,21.77
2018-02-10T04:48:52.078Z,21.68
2018-02-10T04:49:52.069Z,21.75
2018-02-10T04:50:52.078Z,21.66
2018-02-10T04:52:13.059Z,21.68
2018-02-10T04:52:52.063Z,21.65
2018-02-10T04:53:52.046Z,21.66
2018-02-10T04:54:52.036Z,21.65
2018-02-10T04:55:52.026Z,21.62
2018-02-10T04:56:52.020Z,21.65
2018-02-10T04:58:13.021Z,21.66
2018-02-10T04:58:52.002Z,21.62
2018-02-10T04:59:51.992Z,21.65
2018-02-10T05:00:51.985Z,21.68
2018-02-10T05:01:51.974Z,21.66
2018-02-10T05:02:51.970Z,21.63
2018-02-10T05:04:12.967Z,21.56
2018-02-10T05:04:51.954Z,21.66
2018-02-10T05:05:51.947Z,21.69
2018-02-10T05:06:51.945Z,21.66
2018-02-10T05:07:51.931Z,21.63
2018-02-10T05:08:51.924Z,21.62
2018-02-10T05:10:12.926Z,21.63
2018-02-10T05:10:51.904Z,21.59
2018-02-10T05:11:51.898Z,21.62
2018-02-10T05:12:51.888Z,21.65
2018-02-10T05:13:51.887Z,21.54
2018-02-10T05:14:51.873Z,21.63
2018-02-10T05:16:12.870Z,21.59
2018-02-10T05:16:51.865Z,21.50
2018-02-10T05:17:51.864Z,21.56
2018-02-10T05:18:51.847Z,21.62
2018-02-10T05:19:51.846Z,21.54
2018-02-10T05:20:51.829Z,21.51
2018-02-10T05:22:12.827Z,21.60
2018-02-10T05:22:51.809Z,21.51
2018-02-10T05:23:51.803Z,21.47
2018-02-10T05:24:51.796Z,21.56
2018-02-10T05:25:51.786Z,21.54
2018-02-10T05:26:51.782Z,21.53
2018-02-10T05:28:12.776Z,21.59
2018-02-10T05:28:51.766Z,21.54
2018-02-10T05:29:51.764Z,21.51
2018-02-10T05:30:51.762Z,21.50
2018-02-10T05:31:51.748Z,21.54
2018-02-10T05:32:51.744Z,21.48
2018-02-10T05:34:12.734Z,21.56
2018-02-10T05:34:51.734Z,21.56
2018-02-10T05:35:51.717Z,21.56
2018-02-10T05:36:51.700Z,21.53
2018-02-10T05:37:51.693Z,21.56
2018-02-10T05:38:51.687Z,21.53
2018-02-10T05:40:12.682Z,21.58
2018-02-10T05:40:51.672Z,21.59
2018-02-10T05:41:51.662Z,21.58
2018-02-10T05:42:51.662Z,21.58
2018-02-10T05:43:51.649Z,21.62
2018-02-10T05:44:51.642Z,21.58
2018-02-10T05:46:12.638Z,21.56
2018-02-10T05:46:51.626Z,21.51
2018-02-10T05:47:51.650Z,21.53
2018-02-10T05:48:51.604Z,21.60
2018-02-10T05:49:51.598Z,21.51
2018-02-10T05:50:51.665Z,21.53
2018-02-10T05:52:12.587Z,21.58
2018-02-10T05:52:51.574Z,21.53
2018-02-10T05:53:51.574Z,21.60
2018-02-10T05:54:51.563Z,21.56
2018-02-10T05:55:51.559Z,21.53
2018-02-10T05:56:51.547Z,21.50
2018-02-10T05:58:12.544Z,21.47
2018-02-10T05:58:51.535Z,21.47
2018-02-10T05:59:51.517Z,21.56
2018-02-10T06:00:51.514Z,21.51
2018-02-10T06:01:51.503Z,21.56
2018-02-10T06:02:51.497Z,21.56
2018-02-10T06:04:12.494Z,21.65
2018-02-10T06:04:51.485Z,21.59
2018-02-10T06:05:51.479Z,21.50
2018-02-10T06:06:51.473Z,21.66
2018-02-10T06:07:51.465Z,21.59
2018-02-10T06:08:51.448Z,21.54
2018-02-10T06:10:12.454Z,21.53
2018-02-10T06:10:51.434Z,21.62
2018-02-10T06:11:51.424Z,21.59
2018-02-10T06:12:51.418Z,21.65
2018-02-10T06:13:51.409Z,21.60
2018-02-10T06:14:51.405Z,21.65
2018-02-10T06:16:12.402Z,21.74
2018-02-10T06:16:51.383Z,21.62
2018-02-10T06:17:51.377Z,21.65
2018-02-10T06:18:51.379Z,21.59
2018-02-10T06:19:51.361Z,21.59
2018-02-10T06:20:51.369Z,21.68
2018-02-10T06:22:12.369Z,21.62
2018-02-10T06:22:51.346Z,21.59
2018-02-10T06:23:51.337Z,21.60
2018-02-10T06:24:51.323Z,21.63
2018-02-10T06:25:51.312Z,21.68
2018-02-10T06:26:51.309Z,21.66
2018-02-10T06:28:12.308Z,21.65
2018-02-10T06:28:51.293Z,21.59
2018-02-10T06:29:51.284Z,21.65
2018-02-10T06:30:51.280Z,21.63
2018-02-10T06:31:51.274Z,21.62
2018-02-10T06:32:51.270Z,21.59
2018-02-10T06:34:12.266Z,21.69
2018-02-10T06:34:51.254Z,21.63
2018-02-10T06:35:51.239Z,21.69
2018-02-10T06:36:51.242Z,21.66
2018-02-10T06:37:51.227Z,21.63
2018-02-10T06:38:51.213Z,21.59
2018-02-10T06:40:12.212Z,21.62
2018-02-10T06:40:51.194Z,21.68
2018-02-10T06:41:51.193Z,21.59
2018-02-10T06:42:51.182Z,21.56
2018-02-10T06:43:51.174Z,21.59
2018-02-10T06:44:51.167Z,21.60
2018-02-10T06:46:12.168Z,21.66
2018-02-10T06:46:51.153Z,21.60
2018-02-10T06:47:51.146Z,21.62
2018-02-10T06:48:51.141Z,21.65
2018-02-10T06:49:51.126Z,21.63
2018-02-10T06:50:51.120Z,21.66
2018-02-10T06:52:12.117Z,21.60
2018-02-10T06:52:51.103Z,21.68
2018-02-10T06:53:51.091Z,21.65
2018-02-10T06:54:51.089Z,21.66
2018-02-10T06:55:51.086Z,21.63
2018-02-10T06:56:51.079Z,21.62
2018-02-10T06:58:12.082Z,21.70
2018-02-10T06:58:51.061Z,21.62
2018-02-10T06:59:51.050Z,21.62
2018-02-10T07:00:51.044Z,21.59
2018-02-10T07:01:51.034Z,21.66
2018-02-10T07:02:51.056Z,21.68
2018-02-10T07:04:12.033Z,21.63
2018-02-10T07:04:51.042Z,21.65
2018-02-10T07:05:51.004Z,21.56
2018-02-10T07:06:50.994Z,21.69
2018-02-10T07:07:50.986Z,21.70
2018-02-10T07:08:51.004Z,21.59
2018-02-10T07:10:11.975Z,21.66
2018-02-10T07:10:50.966Z,21.69
2018-02-10T07:11:50.957Z,21.65
2018-02-10T07:12:51.000Z,21.62
2018-02-10T07:13:50.936Z,21.66
2018-02-10T07:14:50.935Z,21.65
2018-02-10T07:16:11.928Z,21.62
2018-02-10T07:16:50.911Z,21.60
2018-02-10T07:17:50.909Z,21.68
2018-02-10T07:18:50.902Z,21.65
2018-02-10T07:19:50.888Z,21.63
2018-02-10T07:20:50.882Z,21.69
2018-02-10T07:22:11.880Z,21.63
2018-02-10T07:22:50.867Z,21.63
2018-02-10T07:23:50.863Z,21.65
2018-02-10T07:24:50.853Z,21.53
2018-02-10T07:25:50.897Z,21.66
2018-02-10T07:26:50.837Z,21.59
2018-02-10T07:28:11.837Z,21.68
2018-02-10T07:28:50.824Z,21.60
2018-02-10T07:29:50.811Z,21.63
2018-02-10T07:30:50.805Z,21.65
2018-02-10T07:31:50.794Z,21.62
2018-02-10T07:32:50.805Z,21.66
2018-02-10T07:34:11.786Z,21.69
2018-02-10T07:34:50.780Z,21.65
2018-02-10T07:35:50.771Z,21.62
2018-02-10T07:36:50.755Z,21.56
2018-02-10T07:37:50.759Z,21.56
2018-02-10T07:38:50.741Z,21.59
2018-02-10T07:40:11.744Z,21.72
2018-02-10T07:40:50.728Z,21.63
2018-02-10T07:41:50.715Z,21.62
2018-02-10T07:42:50.710Z,21.62
2018-02-10T07:43:50.716Z,21.66
2018-02-10T07:44:50.696Z,21.56
2018-02-10T07:46:11.735Z,21.60
2018-02-10T07:46:50.678Z,21.66
2018-02-10T07:47:50.673Z,21.60
2018-02-10T07:48:50.668Z,21.59
2018-02-10T07:49:50.659Z,21.51
2018-02-10T07:50:50.644Z,21.56
2018-02-10T07:52:11.648Z,21.56
2018-02-10T07:52:50.643Z,21.50
2018-02-10T07:53:50.622Z,21.53
2018-02-10T07:54:50.617Z,21.53
2018-02-10T07:55:50.607Z,21.53
2018-02-10T07:56:50.604Z,21.54
2018-02-10T07:58:11.599Z,21.58
2018-02-10T07:58:50.585Z,21.50
2018-02-10T07:59:50.579Z,21.60
2018-02-10T08:00:50.572Z,21.51
2018-02-10T08:01:50.560Z,21.58
2018-02-10T08:02:50.559Z,21.54
2018-02-10T08:04:11.556Z,21.56
2018-02-10T08:04:50.533Z,21.51
2018-02-10T08:05:50.528Z,21.59
2018-02-10T08:06:50.518Z,21.54
2018-02-10T08:07:50.510Z,21.54
2018-02-10T08:08:50.516Z,21.59
2018-02-10T08:10:11.501Z,21.58
2018-02-10T08:10:50.496Z,21.54
2018-02-10T08:11:50.492Z,21.50
2018-02-10T08:12:50.475Z,21.51
2018-02-10T08:13:50.469Z,21.62
2018-02-10T08:14:50.460Z,21.69
2018-02-10T08:16:11.463Z,21.65
2018-02-10T08:16:50.443Z,21.69
2018-02-10T08:17:50.446Z,21.72
2018-02-10T08:18:50.437Z,21.74
2018-02-10T08:19:50.423Z,21.74
2018-02-10T08:20:50.412Z,21.78
2018-02-10T08:22:11.410Z,21.72
2018-02-10T08:22:50.397Z,21.77
2018-02-10T08:23:50.390Z,21.83
2018-02-10T08:24:50.380Z,21.78
2018-02-10T08:25:50.376Z,21.74
2018-02-10T08:26:50.365Z,21.88
2018-02-10T08:28:11.369Z,21.80
2018-02-10T08:28:50.349Z,21.81
2018-02-10T08:29:50.340Z,21.89
2018-02-10T08:30:50.332Z,21.92
2018-02-10T08:31:50.397Z,21.83
2018-02-10T08:32:50.320Z,21.91
2018-02-10T08:34:11.313Z,21.94
2018-02-10T08:34:50.307Z,21.91
2018-02-10T08:35:50.307Z,21.92
2018-02-10T08:36:50.295Z,21.94
2018-02-10T08:37:50.279Z,21.99
2018-02-10T08:38:50.271Z,21.94
2018-02-10T08:40:11.269Z,21.94
2018-02-10T08:40:50.254Z,21.96
2018-02-10T08:41:50.246Z,21.97
2018-02-10T08:42:50.240Z,22.00
2018-02-10T08:43:50.234Z,21.89
2018-02-10T08:44:50.224Z,21.94
2018-02-10T08:46:11.223Z,21.94
2018-02-10T08:46:50.209Z,21.94
2018-02-10T08:47:50.199Z,21.99
2018-02-10T08:48:50.197Z,21.92
2018-02-10T08:49:50.190Z,21.94
2018-02-10T08:50:50.183Z,21.97
2018-02-10T08:52:11.181Z,21.99
2018-02-10T08:52:50.172Z,21.99
2018-02-10T08:53:50.152Z,21.88
2018-02-10T08:54:50.146Z,21.83
2018-02-10T08:55:50.144Z,21.80
2018-02-10T08:56:50.131Z,21.58
2018-02-10T08:58:11.133Z,21.54
2018-02-10T08:58:50.125Z,21.44
2018-02-10T08:59:50.110Z,21.37
2018-02-10T09:00:50.182Z,21.30
2018-02-10T09:01:50.091Z,21.30
2018-02-10T09:02:50.099Z,21.22
2018-02-10T09:04:11.082Z,21.19
2018-02-10T09:04:50.067Z,21.19
2018-02-10T09:05:50.275Z,21.17
2018-02-10T09:06:50.054Z,21.23
2018-02-10T09:07:50.041Z,21.22
2018-02-10T09:08:50.034Z,21.20
2018-02-10T09:10:11.034Z,21.22
2018-02-10T09:10:50.020Z,21.23
2018-02-10T09:11:50.011Z,21.28
2018-02-10T09:12:50.006Z,21.25
2018-02-10T09:13:50.005Z,21.28
2018-02-10T09:14:50.003Z,21.26
2018-02-10T09:16:11.002Z,21.35
2018-02-10T09:16:50.787Z,21.40
2018-02-10T09:17:49.976Z,21.28
2018-02-10T09:18:49.953Z,21.30
2018-02-10T09:19:49.960Z,21.35
2018-02-10T09:20:49.947Z,21.35
2018-02-10T09:22:10.933Z,21.43
2018-02-10T09:22:49.926Z,21.44
2018-02-10T09:23:49.913Z,21.45
2018-02-10T09:24:49.913Z,21.58
2018-02-10T09:25:49.917Z,21.53
2018-02-10T09:26:49.899Z,21.50
2018-02-10T09:28:10.887Z,21.58
2018-02-10T09:28:49.892Z,21.63
2018-02-10T09:29:49.880Z,21.59
2018-02-10T09:30:49.857Z,21.65
2018-02-10T09:31:49.851Z,21.72
2018-02-10T09:32:49.848Z,21.65
2018-02-10T09:34:10.844Z,21.72
2018-02-10T09:34:49.848Z,21.83
2018-02-10T09:35:49.819Z,21.77
2018-02-10T09:36:49.816Z,21.77
2018-02-10T09:37:49.808Z,21.74
2018-02-10T09:38:49.816Z,21.78
2018-02-10T09:40:10.821Z,21.74
2018-02-10T09:40:49.795Z,21.80
2018-02-10T09:41:49.773Z,21.75
2018-02-10T09:42:49.761Z,21.78
2018-02-10T09:43:49.753Z,21.85
2018-02-10T09:44:49.754Z,21.83
2018-02-10T09:46:10.754Z,21.83
2018-02-10T09:46:49.741Z,21.89
2018-02-10T09:47:49.734Z,21.85
2018-02-10T09:48:49.716Z,21.85
2018-02-10T09:49:49.710Z,21.91
2018-02-10T09:50:49.702Z,21.88
2018-02-10T09:52:10.710Z,21.92
2018-02-10T09:52:49.694Z,21.83
2018-02-10T09:53:49.680Z,21.96
2018-02-10T09:54:49.676Z,21.88
2018-02-10T09:55:49.661Z,21.92
2018-02-10T09:56:49.653Z,21.88
2018-02-10T09:58:10.653Z,21.89
2018-02-10T09:58:49.643Z,21.92
2018-02-10T09:59:49.635Z,21.91
2018-02-10T10:00:49.633Z,21.96
2018-02-10T10:01:49.628Z,21.92
2018-02-10T10:02:49.626Z,21.97
2018-02-10T10:04:10.616Z,21.94
2018-02-10T10:04:49.592Z,21.94
2018-02-10T10:05:49.603Z,21.91
2018-02-10T10:06:49.585Z,21.97
2018-02-10T10:07:49.578Z,21.83
2018-02-10T10:08:49.582Z,21.84
2018-02-10T10:10:10.566Z,21.92
2018-02-10T10:10:49.545Z,21.88
2018-02-10T10:11:49.537Z,21.92
2018-02-10T10:12:49.538Z,21.91
2018-02-10T10:13:49.529Z,21.84
2018-02-10T10:14:49.517Z,21.89
2018-02-10T10:16:10.519Z,21.89
2018-02-10T10:16:49.507Z,21.85
2018-02-10T10:17:49.495Z,21.89
2018-02-10T10:18:49.491Z,21.84
2018-02-10T10:19:49.484Z,21.88
2018-02-10T10:20:49.470Z,21.85
2018-02-10T10:22:10.469Z,21.81
2018-02-10T10:22:49.479Z,21.83
2018-02-10T10:23:49.730Z,21.75
2018-02-10T10:24:49.437Z,21.83
2018-02-10T10:25:49.433Z,21.78
2018-02-10T10:26:49.602Z,21.83
2018-02-10T10:28:10.424Z,21.80
2018-02-10T10:28:49.412Z,21.80
2018-02-10T10:29:49.406Z,21.80
2018-02-10T10:30:49.402Z,21.83
2018-02-10T10:31:49.433Z,21.83
2018-02-10T10:32:49.375Z,21.75
2018-02-10T10:34:10.378Z,21.81
2018-02-10T10:34:49.359Z,21.84
2018-02-10T10:35:49.351Z,21.78
2018-02-10T10:36:49.414Z,21.81
2018-02-10T10:37:49.335Z,21.85
2018-02-10T10:38:49.328Z,21.72
2018-02-10T10:40:10.324Z,21.83
2018-02-10T10:40:49.701Z,21.75
2018-02-10T10:41:49.312Z,21.80
2018-02-10T10:42:49.314Z,21.84
2018-02-10T10:43:49.662Z,21.80
2018-02-10T10:44:49.283Z,21.81
2018-02-10T10:46:10.293Z,21.80
2018-02-10T10:46:49.392Z,21.77
2018-02-10T10:47:49.257Z,21.74
2018-02-10T10:48:49.256Z,21.80
2018-02-10T10:49:49.273Z,21.84
2018-02-10T10:50:49.241Z,21.77
2018-02-10T10:52:10.282Z,21.75
2018-02-10T10:52:49.224Z,21.84
2018-02-10T10:53:49.213Z,21.80
2018-02-10T10:54:49.208Z,21.77
2018-02-10T10:55:49.218Z,21.80
2018-02-10T10:56:49.194Z,21.80
2018-02-10T10:58:10.187Z,21.80
2018-02-10T10:58:49.171Z,21.81
2018-02-10T10:59:49.164Z,21.81
2018-02-10T11:00:49.223Z,21.84
2018-02-10T11:01:49.157Z,21.75
2018-02-10T11:02:49.147Z,21.80
2018-02-10T11:04:10.201Z,21.75
2018-02-10T11:04:49.154Z,21.75
2018-02-10T11:05:49.150Z,21.81
2018-02-10T11:06:49.119Z,21.80
2018-02-10T11:07:49.106Z,21.84
2018-02-10T11:08:49.098Z,21.83
2018-02-10T11:10:10.099Z,21.84
2018-02-10T11:10:49.090Z,21.84
2018-02-10T11:11:49.082Z,21.83
2018-02-10T11:12:49.069Z,21.84
2018-02-10T11:13:49.060Z,21.92
2018-02-10T11:14:49.061Z,21.89
2018-02-10T11:16:10.056Z,21.99
2018-02-10T11:16:49.035Z,21.89
2018-02-10T11:17:49.039Z,21.94
2018-02-10T11:18:49.034Z,21.96
2018-02-10T11:19:49.041Z,21.96
2018-02-10T11:20:49.008Z,21.92
2018-02-10T11:22:10.006Z,21.96
2018-02-10T11:22:49.007Z,21.96
2018-02-10T11:23:48.984Z,21.94
2018-02-10T11:24:48.979Z,22.00
2018-02-10T11:25:48.971Z,22.00
2018-02-10T11:26:48.955Z,21.99
2018-02-10T11:28:09.959Z,21.99
2018-02-10T11:28:48.953Z,21.97
2018-02-10T11:29:48.937Z,22.00
2018-02-10T11:30:48.983Z,22.03
2018-02-10T11:31:48.928Z,21.96
2018-02-10T11:32:48.927Z,22.00
2018-02-10T11:34:09.911Z,22.00
2018-02-10T11:34:48.903Z,22.00
2018-02-10T11:35:48.945Z,21.96
2018-02-10T11:36:48.886Z,22.01
2018-02-10T11:37:48.875Z,22.00
2018-02-10T11:38:48.886Z,22.00
2018-02-10T11:40:09.864Z,21.96
2018-02-10T11:40:48.858Z,21.96
2018-02-10T11:41:48.846Z,21.99
2018-02-10T11:42:48.839Z,22.03
2018-02-10T11:43:48.835Z,22.00
2018-02-10T11:44:48.823Z,21.99
2018-02-10T11:46:09.831Z,22.00
2018-02-10T11:46:48.818Z,21.94
2018-02-10T11:47:48.808Z,21.97
2018-02-10T11:48:48.788Z,21.94
2018-02-10T11:49:48.785Z,21.97
2018-02-10T11:50:48.771Z,21.88
2018-02-10T11:52:09.769Z,21.94
2018-02-10T11:52:48.761Z,21.97
2018-02-10T11:53:48.788Z,21.85
2018-02-10T11:54:48.752Z,21.89
2018-02-10T11:55:48.740Z,21.84
2018-02-10T11:56:48.738Z,21.80
2018-02-10T11:58:09.737Z,21.88
2018-02-10T11:58:48.720Z,21.88
2018-02-10T11:59:48.752Z,21.88
2018-02-10T12:00:48.768Z,21.89
2018-02-10T12:01:48.754Z,21.84
2018-02-10T12:02:48.682Z,21.91
2018-02-10T12:04:09.673Z,21.89
2018-02-10T12:04:49.671Z,21.85
2018-02-10T12:05:48.749Z,21.85
2018-02-10T12:06:49.173Z,21.85
2018-02-10T12:07:49.170Z,21.85
2018-02-10T12:08:49.178Z,21.78
2018-02-10T12:10:09.632Z,21.84
2018-02-10T12:10:48.683Z,21.84
2018-02-10T12:11:48.779Z,21.77
2018-02-10T12:12:48.658Z,21.77
2018-02-10T12:13:48.764Z,21.83
2018-02-10T12:14:48.804Z,21.83
2018-02-10T12:16:09.594Z,21.80
2018-02-10T12:16:48.572Z,21.80
2018-02-10T12:17:48.579Z,21.80
2018-02-10T12:18:48.557Z,21.84
2018-02-10T12:19:48.554Z,21.74
2018-02-10T12:20:48.550Z,21.77
2018-02-10T12:22:09.565Z,21.77
2018-02-10T12:22:48.532Z,21.77
2018-02-10T12:23:48.532Z,21.78
2018-02-10T12:24:48.519Z,21.78
2018-02-10T12:25:48.517Z,21.75
2018-02-10T12:26:48.508Z,21.74
2018-02-10T12:28:09.498Z,21.80
2018-02-10T12:28:48.484Z,21.77
2018-02-10T12:29:48.471Z,21.78
2018-02-10T12:30:48.469Z,21.77
2018-02-10T12:31:48.463Z,21.77
2018-02-10T12:32:48.449Z,21.80
2018-02-10T12:34:09.446Z,21.74
2018-02-10T12:34:48.438Z,21.78
2018-02-10T12:35:48.436Z,21.80
2018-02-10T12:36:48.435Z,21.77
2018-02-10T12:37:48.415Z,21.80
2018-02-10T12:38:48.413Z,21.77
2018-02-10T12:40:09.397Z,21.85
2018-02-10T12:40:48.388Z,21.75
2018-02-10T12:41:48.382Z,21.83
2018-02-10T12:42:48.374Z,21.80
2018-02-10T12:43:48.365Z,21.75
2018-02-10T12:44:48.363Z,21.78
2018-02-10T12:46:09.351Z,21.81
2018-02-10T12:46:48.349Z,21.74
2018-02-10T12:47:48.392Z,21.72
2018-02-10T12:48:48.329Z,21.77
2018-02-10T12:49:48.329Z,21.77
2018-02-10T12:50:48.333Z,21.75
2018-02-10T12:52:09.302Z,21.74
2018-02-10T12:52:48.294Z,21.77